sensor_id;sensor_type;location;lat;lon;timestamp;P1;durP1;ratioP1;P2;durP2;ratioP2
34725;SDS011;20951;50.818;4.344;2023-03-01T00:00:37;15.00;;;9.55;;
34725;SDS011;20951;50.818;4.344;2023-03-01T00:03:03;16.25;;;10.60;;
34725;SDS011;20951;50.818;4.344;2023-03-01T00:05:29;14.32;;;9.73;;
34725;SDS011;20951;50.818;4.344;2023-03-01T00:07:55;14.32;;;9.60;;
34725;SDS011;20951;50.818;4.344;2023-03-01T00:10:21;14.55;;;10.10;;
34725;SDS011;20951;50.818;4.344;2023-03-01T00:12:47;15.43;;;10.05;;
34725;SDS011;20951;50.818;4.344;2023-03-01T00:15:13;16.63;;;10.32;;
34725;SDS011;20951;50.818;4.344;2023-03-01T00:17:39;12.98;;;9.40;;
34725;SDS011;20951;50.818;4.344;2023-03-01T00:20:05;15.13;;;10.13;;
34725;SDS011;20951;50.818;4.344;2023-03-01T00:22:35;15.73;;;9.90;;
34725;SDS011;20951;50.818;4.344;2023-03-01T00:25:02;17.60;;;10.48;;
34725;SDS011;20951;50.818;4.344;2023-03-01T00:27:29;16.70;;;10.45;;
34725;SDS011;20951;50.818;4.344;2023-03-01T00:29:55;16.48;;;10.50;;
34725;SDS011;20951;50.818;4.344;2023-03-01T00:32:21;18.98;;;11.18;;
34725;SDS011;20951;50.818;4.344;2023-03-01T00:34:47;15.13;;;9.57;;
34725;SDS011;20951;50.818;4.344;2023-03-01T00:37:22;13.75;;;9.88;;
34725;SDS011;20951;50.818;4.344;2023-03-01T00:39:49;13.00;;;9.45;;
34725;SDS011;20951;50.818;4.344;2023-03-01T00:42:15;15.43;;;9.70;;
34725;SDS011;20951;50.818;4.344;2023-03-01T00:44:42;15.38;;;9.60;;
34725;SDS011;20951;50.818;4.344;2023-03-01T00:47:08;15.60;;;9.43;;
34725;SDS011;20951;50.818;4.344;2023-03-01T00:49:34;13.95;;;9.20;;
34725;SDS011;20951;50.818;4.344;2023-03-01T00:52:00;14.65;;;9.57;;
34725;SDS011;20951;50.818;4.344;2023-03-01T00:54:26;13.90;;;9.27;;
34725;SDS011;20951;50.818;4.344;2023-03-01T00:56:52;15.90;;;9.45;;
34725;SDS011;20951;50.818;4.344;2023-03-01T00:59:18;14.77;;;9.95;;
34725;SDS011;20951;50.818;4.344;2023-03-01T01:01:44;15.07;;;9.52;;
34725;SDS011;20951;50.818;4.344;2023-03-01T01:04:11;16.05;;;10.50;;
34725;SDS011;20951;50.818;4.344;2023-03-01T01:06:39;16.30;;;9.88;;
34725;SDS011;20951;50.818;4.344;2023-03-01T01:09:07;17.77;;;10.18;;
34725;SDS011;20951;50.818;4.344;2023-03-01T01:11:42;14.88;;;9.57;;
34725;SDS011;20951;50.818;4.344;2023-03-01T01:14:15;16.23;;;10.23;;
34725;SDS011;20951;50.818;4.344;2023-03-01T01:16:43;13.65;;;9.45;;
34725;SDS011;20951;50.818;4.344;2023-03-01T01:19:10;15.32;;;10.15;;
34725;SDS011;20951;50.818;4.344;2023-03-01T01:21:36;16.27;;;9.70;;
34725;SDS011;20951;50.818;4.344;2023-03-01T01:24:03;13.40;;;9.88;;
34725;SDS011;20951;50.818;4.344;2023-03-01T01:26:30;18.13;;;10.05;;
34725;SDS011;20951;50.818;4.344;2023-03-01T01:28:57;13.45;;;9.43;;
34725;SDS011;20951;50.818;4.344;2023-03-01T01:31:24;14.02;;;9.73;;
34725;SDS011;20951;50.818;4.344;2023-03-01T01:33:51;18.63;;;10.27;;
34725;SDS011;20951;50.818;4.344;2023-03-01T01:36:18;14.80;;;9.93;;
34725;SDS011;20951;50.818;4.344;2023-03-01T01:38:44;13.30;;;9.88;;
34725;SDS011;20951;50.818;4.344;2023-03-01T01:41:11;13.40;;;9.63;;
34725;SDS011;20951;50.818;4.344;2023-03-01T01:43:39;14.85;;;9.13;;
34725;SDS011;20951;50.818;4.344;2023-03-01T01:48:47;16.20;;;9.60;;
34725;SDS011;20951;50.818;4.344;2023-03-01T01:51:18;16.23;;;10.13;;
34725;SDS011;20951;50.818;4.344;2023-03-01T01:53:49;14.75;;;9.98;;
34725;SDS011;20951;50.818;4.344;2023-03-01T01:56:20;15.27;;;9.65;;
34725;SDS011;20951;50.818;4.344;2023-03-01T01:58:47;13.45;;;9.75;;
34725;SDS011;20951;50.818;4.344;2023-03-01T02:01:14;12.60;;;9.45;;
34725;SDS011;20951;50.818;4.344;2023-03-01T02:03:41;14.13;;;10.02;;
34725;SDS011;20951;50.818;4.344;2023-03-01T02:08:44;14.52;;;9.73;;
34725;SDS011;20951;50.818;4.344;2023-03-01T02:11:12;20.25;;;10.38;;
34725;SDS011;20951;50.818;4.344;2023-03-01T02:13:39;12.90;;;9.85;;
34725;SDS011;20951;50.818;4.344;2023-03-01T02:16:10;15.48;;;9.95;;
34725;SDS011;20951;50.818;4.344;2023-03-01T02:18:38;15.05;;;9.75;;
34725;SDS011;20951;50.818;4.344;2023-03-01T02:24:02;15.40;;;9.23;;
34725;SDS011;20951;50.818;4.344;2023-03-01T02:26:46;12.55;;;9.30;;
34725;SDS011;20951;50.818;4.344;2023-03-01T02:29:16;16.45;;;10.05;;
34725;SDS011;20951;50.818;4.344;2023-03-01T02:31:42;14.32;;;10.07;;
34725;SDS011;20951;50.818;4.344;2023-03-01T02:34:10;15.32;;;10.10;;
34725;SDS011;20951;50.818;4.344;2023-03-01T02:39:23;14.75;;;10.00;;
34725;SDS011;20951;50.818;4.344;2023-03-01T02:41:54;15.60;;;10.23;;
34725;SDS011;20951;50.818;4.344;2023-03-01T02:44:21;14.65;;;10.00;;
34725;SDS011;20951;50.818;4.344;2023-03-01T02:46:49;15.35;;;10.35;;
34725;SDS011;20951;50.818;4.344;2023-03-01T02:51:54;12.10;;;9.60;;
34725;SDS011;20951;50.818;4.344;2023-03-01T02:54:28;12.65;;;9.73;;
34725;SDS011;20951;50.818;4.344;2023-03-01T02:56:55;15.65;;;9.88;;
34725;SDS011;20951;50.818;4.344;2023-03-01T02:59:22;15.20;;;10.02;;
34725;SDS011;20951;50.818;4.344;2023-03-01T03:01:52;13.60;;;10.30;;
34725;SDS011;20951;50.818;4.344;2023-03-01T03:04:19;14.50;;;10.43;;
34725;SDS011;20951;50.818;4.344;2023-03-01T03:06:49;13.77;;;10.27;;
34725;SDS011;20951;50.818;4.344;2023-03-01T03:09:16;16.08;;;10.23;;
34725;SDS011;20951;50.818;4.344;2023-03-01T03:11:43;14.48;;;10.52;;
34725;SDS011;20951;50.818;4.344;2023-03-01T03:14:12;13.00;;;9.52;;
34725;SDS011;20951;50.818;4.344;2023-03-01T03:16:44;15.05;;;10.00;;
34725;SDS011;20951;50.818;4.344;2023-03-01T03:19:11;13.00;;;9.70;;
34725;SDS011;20951;50.818;4.344;2023-03-01T03:21:38;15.57;;;10.55;;
34725;SDS011;20951;50.818;4.344;2023-03-01T03:24:04;15.10;;;10.52;;
34725;SDS011;20951;50.818;4.344;2023-03-01T03:26:30;17.23;;;10.63;;
34725;SDS011;20951;50.818;4.344;2023-03-01T03:28:57;15.90;;;10.57;;
34725;SDS011;20951;50.818;4.344;2023-03-01T03:31:23;16.92;;;10.60;;
34725;SDS011;20951;50.818;4.344;2023-03-01T03:33:49;14.15;;;10.43;;
34725;SDS011;20951;50.818;4.344;2023-03-01T03:36:16;16.92;;;10.57;;
34725;SDS011;20951;50.818;4.344;2023-03-01T03:38:43;16.00;;;11.43;;
34725;SDS011;20951;50.818;4.344;2023-03-01T03:41:13;14.40;;;10.68;;
34725;SDS011;20951;50.818;4.344;2023-03-01T03:43:40;14.27;;;10.75;;
34725;SDS011;20951;50.818;4.344;2023-03-01T03:46:09;12.50;;;9.68;;
34725;SDS011;20951;50.818;4.344;2023-03-01T03:48:38;14.00;;;10.73;;
34725;SDS011;20951;50.818;4.344;2023-03-01T03:51:05;15.40;;;10.75;;
34725;SDS011;20951;50.818;4.344;2023-03-01T03:53:33;15.82;;;10.98;;
34725;SDS011;20951;50.818;4.344;2023-03-01T03:55:59;17.08;;;11.23;;
34725;SDS011;20951;50.818;4.344;2023-03-01T03:58:25;16.27;;;10.60;;
34725;SDS011;20951;50.818;4.344;2023-03-01T04:00:53;16.65;;;10.43;;
34725;SDS011;20951;50.818;4.344;2023-03-01T04:03:24;15.38;;;10.95;;
34725;SDS011;20951;50.818;4.344;2023-03-01T04:05:51;14.73;;;10.85;;
34725;SDS011;20951;50.818;4.344;2023-03-01T04:08:19;15.18;;;10.60;;
34725;SDS011;20951;50.818;4.344;2023-03-01T04:10:47;14.70;;;10.98;;
34725;SDS011;20951;50.818;4.344;2023-03-01T04:13:16;17.70;;;11.45;;
34725;SDS011;20951;50.818;4.344;2023-03-01T04:15:45;15.77;;;10.38;;
34725;SDS011;20951;50.818;4.344;2023-03-01T04:18:12;17.33;;;11.73;;
34725;SDS011;20951;50.818;4.344;2023-03-01T04:20:42;16.83;;;11.43;;
34725;SDS011;20951;50.818;4.344;2023-03-01T04:23:11;17.20;;;10.88;;
34725;SDS011;20951;50.818;4.344;2023-03-01T04:25:47;14.25;;;10.98;;
34725;SDS011;20951;50.818;4.344;2023-03-01T04:28:32;16.63;;;11.00;;
34725;SDS011;20951;50.818;4.344;2023-03-01T04:31:05;15.00;;;10.90;;
34725;SDS011;20951;50.818;4.344;2023-03-01T04:33:38;17.15;;;11.43;;
34725;SDS011;20951;50.818;4.344;2023-03-01T04:36:13;16.38;;;10.93;;
34725;SDS011;20951;50.818;4.344;2023-03-01T04:38:40;15.40;;;11.20;;
34725;SDS011;20951;50.818;4.344;2023-03-01T04:41:07;17.98;;;11.68;;
34725;SDS011;20951;50.818;4.344;2023-03-01T04:43:35;16.35;;;11.63;;
34725;SDS011;20951;50.818;4.344;2023-03-01T04:46:02;17.67;;;11.63;;
34725;SDS011;20951;50.818;4.344;2023-03-01T04:48:31;18.75;;;11.18;;
34725;SDS011;20951;50.818;4.344;2023-03-01T04:50:58;18.55;;;11.00;;
34725;SDS011;20951;50.818;4.344;2023-03-01T04:53:25;18.17;;;11.73;;
34725;SDS011;20951;50.818;4.344;2023-03-01T04:55:52;16.00;;;11.93;;
34725;SDS011;20951;50.818;4.344;2023-03-01T04:58:19;16.08;;;11.30;;
34725;SDS011;20951;50.818;4.344;2023-03-01T05:00:45;22.15;;;12.00;;
34725;SDS011;20951;50.818;4.344;2023-03-01T05:03:11;16.92;;;11.07;;
34725;SDS011;20951;50.818;4.344;2023-03-01T05:05:43;16.63;;;11.40;;
34725;SDS011;20951;50.818;4.344;2023-03-01T05:08:10;19.75;;;11.50;;
34725;SDS011;20951;50.818;4.344;2023-03-01T05:10:42;18.67;;;11.43;;
34725;SDS011;20951;50.818;4.344;2023-03-01T05:13:11;16.27;;;11.25;;
34725;SDS011;20951;50.818;4.344;2023-03-01T05:15:46;19.00;;;11.07;;
34725;SDS011;20951;50.818;4.344;2023-03-01T05:18:14;22.23;;;12.20;;
34725;SDS011;20951;50.818;4.344;2023-03-01T05:20:40;16.90;;;11.85;;
34725;SDS011;20951;50.818;4.344;2023-03-01T05:23:07;17.85;;;11.73;;
34725;SDS011;20951;50.818;4.344;2023-03-01T05:25:36;19.45;;;11.48;;
34725;SDS011;20951;50.818;4.344;2023-03-01T05:28:05;15.73;;;11.07;;
34725;SDS011;20951;50.818;4.344;2023-03-01T05:30:35;18.27;;;11.95;;
34725;SDS011;20951;50.818;4.344;2023-03-01T05:33:04;17.80;;;11.27;;
34725;SDS011;20951;50.818;4.344;2023-03-01T05:35:32;17.02;;;11.75;;
34725;SDS011;20951;50.818;4.344;2023-03-01T05:37:58;17.20;;;11.98;;
34725;SDS011;20951;50.818;4.344;2023-03-01T05:40:24;14.07;;;11.07;;
34725;SDS011;20951;50.818;4.344;2023-03-01T05:42:52;19.75;;;11.73;;
34725;SDS011;20951;50.818;4.344;2023-03-01T05:45:19;15.85;;;11.70;;
34725;SDS011;20951;50.818;4.344;2023-03-01T05:47:47;20.67;;;11.93;;
34725;SDS011;20951;50.818;4.344;2023-03-01T05:50:14;16.73;;;11.82;;
34725;SDS011;20951;50.818;4.344;2023-03-01T05:52:49;25.45;;;11.95;;
34725;SDS011;20951;50.818;4.344;2023-03-01T05:55:23;18.85;;;12.15;;
34725;SDS011;20951;50.818;4.344;2023-03-01T05:57:49;21.35;;;11.77;;
34725;SDS011;20951;50.818;4.344;2023-03-01T06:00:16;18.85;;;12.63;;
34725;SDS011;20951;50.818;4.344;2023-03-01T06:02:44;17.58;;;12.07;;
34725;SDS011;20951;50.818;4.344;2023-03-01T06:05:11;18.55;;;12.40;;
34725;SDS011;20951;50.818;4.344;2023-03-01T06:07:40;16.63;;;12.15;;
34725;SDS011;20951;50.818;4.344;2023-03-01T06:10:06;19.25;;;12.02;;
34725;SDS011;20951;50.818;4.344;2023-03-01T06:12:34;21.33;;;12.77;;
34725;SDS011;20951;50.818;4.344;2023-03-01T06:15:02;20.60;;;12.43;;
34725;SDS011;20951;50.818;4.344;2023-03-01T06:17:29;22.35;;;12.98;;
34725;SDS011;20951;50.818;4.344;2023-03-01T06:19:56;17.92;;;12.55;;
34725;SDS011;20951;50.818;4.344;2023-03-01T06:22:27;19.52;;;13.02;;
34725;SDS011;20951;50.818;4.344;2023-03-01T06:24:56;18.63;;;12.32;;
34725;SDS011;20951;50.818;4.344;2023-03-01T06:27:25;24.63;;;13.02;;
34725;SDS011;20951;50.818;4.344;2023-03-01T06:29:55;21.27;;;12.90;;
34725;SDS011;20951;50.818;4.344;2023-03-01T06:32:25;20.02;;;12.45;;
34725;SDS011;20951;50.818;4.344;2023-03-01T06:34:56;19.40;;;12.52;;
34725;SDS011;20951;50.818;4.344;2023-03-01T06:37:26;19.20;;;12.73;;
34725;SDS011;20951;50.818;4.344;2023-03-01T06:39:55;19.33;;;11.60;;
34725;SDS011;20951;50.818;4.344;2023-03-01T06:42:29;18.77;;;11.52;;
34725;SDS011;20951;50.818;4.344;2023-03-01T06:44:59;18.50;;;11.80;;
34725;SDS011;20951;50.818;4.344;2023-03-01T06:47:28;19.73;;;13.65;;
34725;SDS011;20951;50.818;4.344;2023-03-01T06:49:58;16.58;;;12.07;;
34725;SDS011;20951;50.818;4.344;2023-03-01T06:52:28;21.15;;;13.00;;
34725;SDS011;20951;50.818;4.344;2023-03-01T06:54:57;19.35;;;12.48;;
34725;SDS011;20951;50.818;4.344;2023-03-01T06:57:27;18.05;;;12.35;;
34725;SDS011;20951;50.818;4.344;2023-03-01T06:59:56;20.63;;;12.88;;
34725;SDS011;20951;50.818;4.344;2023-03-01T07:02:25;20.95;;;12.85;;
34725;SDS011;20951;50.818;4.344;2023-03-01T07:04:54;16.92;;;12.55;;
34725;SDS011;20951;50.818;4.344;2023-03-01T07:07:23;18.33;;;12.70;;
34725;SDS011;20951;50.818;4.344;2023-03-01T07:09:52;19.63;;;13.00;;
34725;SDS011;20951;50.818;4.344;2023-03-01T07:12:22;20.52;;;12.35;;
34725;SDS011;20951;50.818;4.344;2023-03-01T07:14:51;20.52;;;12.75;;
34725;SDS011;20951;50.818;4.344;2023-03-01T07:17:21;21.67;;;12.75;;
34725;SDS011;20951;50.818;4.344;2023-03-01T07:19:50;19.45;;;12.70;;
34725;SDS011;20951;50.818;4.344;2023-03-01T07:22:20;18.85;;;12.65;;
34725;SDS011;20951;50.818;4.344;2023-03-01T07:24:50;21.20;;;13.75;;
34725;SDS011;20951;50.818;4.344;2023-03-01T07:27:19;16.73;;;12.20;;
34725;SDS011;20951;50.818;4.344;2023-03-01T07:29:48;18.98;;;12.60;;
34725;SDS011;20951;50.818;4.344;2023-03-01T07:32:16;20.00;;;12.90;;
34725;SDS011;20951;50.818;4.344;2023-03-01T07:34:46;19.95;;;13.07;;
34725;SDS011;20951;50.818;4.344;2023-03-01T07:37:16;23.15;;;12.95;;
34725;SDS011;20951;50.818;4.344;2023-03-01T07:39:46;20.17;;;13.10;;
34725;SDS011;20951;50.818;4.344;2023-03-01T07:42:15;19.27;;;12.73;;
34725;SDS011;20951;50.818;4.344;2023-03-01T07:44:43;21.25;;;12.43;;
34725;SDS011;20951;50.818;4.344;2023-03-01T07:47:13;17.50;;;12.73;;
34725;SDS011;20951;50.818;4.344;2023-03-01T07:49:43;18.55;;;12.93;;
34725;SDS011;20951;50.818;4.344;2023-03-01T07:52:13;18.50;;;12.82;;
34725;SDS011;20951;50.818;4.344;2023-03-01T07:54:43;23.27;;;13.60;;
34725;SDS011;20951;50.818;4.344;2023-03-01T07:57:13;19.27;;;12.75;;
34725;SDS011;20951;50.818;4.344;2023-03-01T07:59:43;22.10;;;13.18;;
34725;SDS011;20951;50.818;4.344;2023-03-01T08:02:12;19.33;;;13.50;;
34725;SDS011;20951;50.818;4.344;2023-03-01T08:04:42;24.05;;;13.27;;
34725;SDS011;20951;50.818;4.344;2023-03-01T08:07:12;21.90;;;12.50;;
34725;SDS011;20951;50.818;4.344;2023-03-01T08:09:41;21.13;;;12.88;;
34725;SDS011;20951;50.818;4.344;2023-03-01T08:12:10;22.50;;;13.32;;
34725;SDS011;20951;50.818;4.344;2023-03-01T08:14:38;23.23;;;13.93;;
34725;SDS011;20951;50.818;4.344;2023-03-01T08:17:08;19.83;;;13.13;;
34725;SDS011;20951;50.818;4.344;2023-03-01T08:19:37;21.67;;;13.20;;
34725;SDS011;20951;50.818;4.344;2023-03-01T08:22:07;21.73;;;13.75;;
34725;SDS011;20951;50.818;4.344;2023-03-01T08:24:36;23.25;;;13.40;;
34725;SDS011;20951;50.818;4.344;2023-03-01T08:27:05;20.63;;;14.07;;
34725;SDS011;20951;50.818;4.344;2023-03-01T08:29:34;21.10;;;12.95;;
34725;SDS011;20951;50.818;4.344;2023-03-01T08:32:03;19.38;;;13.10;;
34725;SDS011;20951;50.818;4.344;2023-03-01T08:34:32;21.52;;;13.65;;
34725;SDS011;20951;50.818;4.344;2023-03-01T08:37:01;25.20;;;12.82;;
34725;SDS011;20951;50.818;4.344;2023-03-01T08:39:30;24.48;;;13.70;;
34725;SDS011;20951;50.818;4.344;2023-03-01T08:41:59;24.67;;;13.88;;
34725;SDS011;20951;50.818;4.344;2023-03-01T08:44:28;19.50;;;13.43;;
34725;SDS011;20951;50.818;4.344;2023-03-01T08:47:00;20.30;;;13.52;;
34725;SDS011;20951;50.818;4.344;2023-03-01T08:49:30;20.55;;;13.38;;
34725;SDS011;20951;50.818;4.344;2023-03-01T08:51:59;25.33;;;13.95;;
34725;SDS011;20951;50.818;4.344;2023-03-01T08:54:29;23.10;;;13.15;;
34725;SDS011;20951;50.818;4.344;2023-03-01T08:56:57;20.98;;;13.10;;
34725;SDS011;20951;50.818;4.344;2023-03-01T08:59:28;20.55;;;13.80;;
34725;SDS011;20951;50.818;4.344;2023-03-01T09:02:00;20.55;;;13.02;;
34725;SDS011;20951;50.818;4.344;2023-03-01T09:04:38;19.98;;;12.50;;
34725;SDS011;20951;50.818;4.344;2023-03-01T09:07:07;19.60;;;13.45;;
34725;SDS011;20951;50.818;4.344;2023-03-01T09:09:37;19.73;;;13.48;;
34725;SDS011;20951;50.818;4.344;2023-03-01T09:12:06;22.42;;;13.63;;
34725;SDS011;20951;50.818;4.344;2023-03-01T09:14:36;20.50;;;13.05;;
34725;SDS011;20951;50.818;4.344;2023-03-01T09:17:09;23.27;;;14.13;;
34725;SDS011;20951;50.818;4.344;2023-03-01T09:19:38;19.77;;;13.20;;
34725;SDS011;20951;50.818;4.344;2023-03-01T09:22:07;20.55;;;13.68;;
34725;SDS011;20951;50.818;4.344;2023-03-01T09:24:36;21.00;;;14.10;;
34725;SDS011;20951;50.818;4.344;2023-03-01T09:27:05;21.63;;;13.75;;
34725;SDS011;20951;50.818;4.344;2023-03-01T09:29:36;20.10;;;13.25;;
34725;SDS011;20951;50.818;4.344;2023-03-01T09:32:05;21.48;;;13.80;;
34725;SDS011;20951;50.818;4.344;2023-03-01T09:34:35;24.08;;;14.65;;
34725;SDS011;20951;50.818;4.344;2023-03-01T09:37:23;20.23;;;13.98;;
34725;SDS011;20951;50.818;4.344;2023-03-01T09:39:53;20.35;;;13.70;;
34725;SDS011;20951;50.818;4.344;2023-03-01T09:42:22;22.40;;;14.40;;
34725;SDS011;20951;50.818;4.344;2023-03-01T09:47:28;20.85;;;14.77;;
34725;SDS011;20951;50.818;4.344;2023-03-01T09:50:00;22.20;;;14.02;;
34725;SDS011;20951;50.818;4.344;2023-03-01T09:53:00;22.60;;;14.07;;
34725;SDS011;20951;50.818;4.344;2023-03-01T09:55:33;22.23;;;13.63;;
34725;SDS011;20951;50.818;4.344;2023-03-01T10:00:59;21.20;;;14.77;;
34725;SDS011;20951;50.818;4.344;2023-03-01T10:04:00;23.65;;;14.57;;
34725;SDS011;20951;50.818;4.344;2023-03-01T10:06:40;20.85;;;14.57;;
34725;SDS011;20951;50.818;4.344;2023-03-01T10:09:16;24.58;;;14.38;;
34725;SDS011;20951;50.818;4.344;2023-03-01T10:11:50;20.83;;;14.38;;
34725;SDS011;20951;50.818;4.344;2023-03-01T10:17:48;21.48;;;14.73;;
34725;SDS011;20951;50.818;4.344;2023-03-01T10:20:22;20.65;;;14.45;;
34725;SDS011;20951;50.818;4.344;2023-03-01T10:23:08;24.45;;;14.73;;
34725;SDS011;20951;50.818;4.344;2023-03-01T10:31:18;18.10;;;13.18;;
34725;SDS011;20951;50.818;4.344;2023-03-01T10:33:54;21.73;;;13.65;;
34725;SDS011;20951;50.818;4.344;2023-03-01T10:36:26;21.58;;;13.02;;
34725;SDS011;20951;50.818;4.344;2023-03-01T10:38:59;18.65;;;12.45;;
34725;SDS011;20951;50.818;4.344;2023-03-01T10:41:40;15.43;;;11.80;;
34725;SDS011;20951;50.818;4.344;2023-03-01T10:47:13;16.20;;;11.80;;
34725;SDS011;20951;50.818;4.344;2023-03-01T10:49:52;16.13;;;11.55;;
34725;SDS011;20951;50.818;4.344;2023-03-01T10:52:24;15.60;;;11.48;;
34725;SDS011;20951;50.818;4.344;2023-03-01T10:54:56;16.52;;;12.13;;
34725;SDS011;20951;50.818;4.344;2023-03-01T10:57:46;16.65;;;12.00;;
34725;SDS011;20951;50.818;4.344;2023-03-01T11:03:04;18.63;;;12.15;;
34725;SDS011;20951;50.818;4.344;2023-03-01T11:06:23;18.30;;;12.35;;
34725;SDS011;20951;50.818;4.344;2023-03-01T11:08:35;14.15;;;10.93;;
34725;SDS011;20951;50.818;4.344;2023-03-01T11:11:21;14.60;;;11.45;;
34725;SDS011;20951;50.818;4.344;2023-03-01T11:16:49;14.77;;;11.15;;
34725;SDS011;20951;50.818;4.344;2023-03-01T11:19:29;15.32;;;10.55;;
34725;SDS011;20951;50.818;4.344;2023-03-01T11:22:03;16.02;;;11.13;;
34725;SDS011;20951;50.818;4.344;2023-03-01T11:24:53;14.00;;;11.02;;
34725;SDS011;20951;50.818;4.344;2023-03-01T11:27:28;14.13;;;10.77;;
34725;SDS011;20951;50.818;4.344;2023-03-01T11:30:07;14.55;;;10.95;;
34725;SDS011;20951;50.818;4.344;2023-03-01T11:32:43;17.40;;;10.52;;
34725;SDS011;20951;50.818;4.344;2023-03-01T11:35:32;14.57;;;10.70;;
34725;SDS011;20951;50.818;4.344;2023-03-01T11:38:21;16.80;;;10.98;;
34725;SDS011;20951;50.818;4.344;2023-03-01T11:41:14;17.05;;;12.20;;
34725;SDS011;20951;50.818;4.344;2023-03-01T11:44:15;16.00;;;10.55;;
34725;SDS011;20951;50.818;4.344;2023-03-01T11:46:51;15.13;;;10.57;;
34725;SDS011;20951;50.818;4.344;2023-03-01T11:49:37;15.48;;;11.00;;
34725;SDS011;20951;50.818;4.344;2023-03-01T11:52:21;12.45;;;9.95;;
34725;SDS011;20951;50.818;4.344;2023-03-01T12:01:13;16.08;;;10.60;;
34725;SDS011;20951;50.818;4.344;2023-03-01T12:12:25;14.18;;;10.23;;
34725;SDS011;20951;50.818;4.344;2023-03-01T12:15:09;12.40;;;9.57;;
34725;SDS011;20951;50.818;4.344;2023-03-01T12:28:59;12.35;;;9.80;;
34725;SDS011;20951;50.818;4.344;2023-03-01T12:42:51;14.73;;;10.00;;
34725;SDS011;20951;50.818;4.344;2023-03-01T12:50:54;14.48;;;9.93;;
34725;SDS011;20951;50.818;4.344;2023-03-01T12:53:34;14.55;;;9.93;;
34725;SDS011;20951;50.818;4.344;2023-03-01T12:56:18;15.73;;;11.02;;
34725;SDS011;20951;50.818;4.344;2023-03-01T13:02:02;19.35;;;10.50;;
34725;SDS011;20951;50.818;4.344;2023-03-01T13:12:51;13.80;;;9.38;;
34725;SDS011;20951;50.818;4.344;2023-03-01T13:15:26;13.43;;;9.75;;
34725;SDS011;20951;50.818;4.344;2023-03-01T13:18:00;12.18;;;9.93;;
34725;SDS011;20951;50.818;4.344;2023-03-01T13:20:31;15.23;;;10.00;;
34725;SDS011;20951;50.818;4.344;2023-03-01T13:23:23;13.13;;;9.45;;
34725;SDS011;20951;50.818;4.344;2023-03-01T13:26:13;13.98;;;9.77;;
34725;SDS011;20951;50.818;4.344;2023-03-01T13:28:59;15.60;;;9.88;;
34725;SDS011;20951;50.818;4.344;2023-03-01T13:34:01;14.23;;;9.95;;
34725;SDS011;20951;50.818;4.344;2023-03-01T13:39:30;13.98;;;9.75;;
34725;SDS011;20951;50.818;4.344;2023-03-01T13:42:28;14.07;;;10.00;;
34725;SDS011;20951;50.818;4.344;2023-03-01T13:48:10;13.55;;;9.30;;
34725;SDS011;20951;50.818;4.344;2023-03-01T13:50:53;12.95;;;9.30;;
34725;SDS011;20951;50.818;4.344;2023-03-01T13:53:35;10.90;;;9.48;;
34725;SDS011;20951;50.818;4.344;2023-03-01T13:56:09;17.45;;;9.63;;
34725;SDS011;20951;50.818;4.344;2023-03-01T14:01:43;13.27;;;10.38;;
34725;SDS011;20951;50.818;4.344;2023-03-01T14:07:16;21.23;;;10.38;;
34725;SDS011;20951;50.818;4.344;2023-03-01T14:09:52;15.35;;;10.30;;
34725;SDS011;20951;50.818;4.344;2023-03-01T14:15:37;16.10;;;9.98;;
34725;SDS011;20951;50.818;4.344;2023-03-01T14:18:18;14.73;;;10.52;;
34725;SDS011;20951;50.818;4.344;2023-03-01T14:20:56;12.82;;;9.93;;
34725;SDS011;20951;50.818;4.344;2023-03-01T14:23:25;13.00;;;9.90;;
34725;SDS011;20951;50.818;4.344;2023-03-01T14:25:55;16.95;;;11.00;;
34725;SDS011;20951;50.818;4.344;2023-03-01T14:28:26;16.15;;;10.23;;
34725;SDS011;20951;50.818;4.344;2023-03-01T14:30:57;14.30;;;10.35;;
34725;SDS011;20951;50.818;4.344;2023-03-01T14:33:27;14.23;;;10.20;;
34725;SDS011;20951;50.818;4.344;2023-03-01T14:36:12;15.63;;;10.18;;
34725;SDS011;20951;50.818;4.344;2023-03-01T14:38:43;14.07;;;10.43;;
34725;SDS011;20951;50.818;4.344;2023-03-01T14:41:14;13.32;;;10.25;;
34725;SDS011;20951;50.818;4.344;2023-03-01T14:43:47;13.23;;;10.10;;
34725;SDS011;20951;50.818;4.344;2023-03-01T14:46:28;14.93;;;10.25;;
34725;SDS011;20951;50.818;4.344;2023-03-01T14:49:06;14.32;;;10.43;;
34725;SDS011;20951;50.818;4.344;2023-03-01T14:51:40;12.77;;;9.57;;
34725;SDS011;20951;50.818;4.344;2023-03-01T14:54:21;12.50;;;10.50;;
34725;SDS011;20951;50.818;4.344;2023-03-01T14:56:52;15.07;;;10.30;;
34725;SDS011;20951;50.818;4.344;2023-03-01T14:59:24;14.27;;;10.73;;
34725;SDS011;20951;50.818;4.344;2023-03-01T15:01:55;15.52;;;10.88;;
34725;SDS011;20951;50.818;4.344;2023-03-01T15:04:25;13.85;;;10.45;;
34725;SDS011;20951;50.818;4.344;2023-03-01T15:06:55;15.18;;;11.02;;
34725;SDS011;20951;50.818;4.344;2023-03-01T15:09:30;16.73;;;11.40;;
34725;SDS011;20951;50.818;4.344;2023-03-01T15:12:00;16.00;;;11.02;;
34725;SDS011;20951;50.818;4.344;2023-03-01T15:14:48;15.80;;;11.32;;
34725;SDS011;20951;50.818;4.344;2023-03-01T15:17:37;14.30;;;10.30;;
34725;SDS011;20951;50.818;4.344;2023-03-01T15:20:13;15.68;;;10.35;;
34725;SDS011;20951;50.818;4.344;2023-03-01T15:22:47;14.82;;;10.85;;
34725;SDS011;20951;50.818;4.344;2023-03-01T15:25:19;13.30;;;10.40;;
34725;SDS011;20951;50.818;4.344;2023-03-01T15:27:55;16.52;;;10.65;;
34725;SDS011;20951;50.818;4.344;2023-03-01T15:30:32;14.85;;;10.10;;
34725;SDS011;20951;50.818;4.344;2023-03-01T15:34:03;14.13;;;10.35;;
34725;SDS011;20951;50.818;4.344;2023-03-01T15:36:29;13.35;;;10.00;;
34725;SDS011;20951;50.818;4.344;2023-03-01T15:38:58;14.25;;;10.27;;
34725;SDS011;20951;50.818;4.344;2023-03-01T15:41:29;13.88;;;10.85;;
34725;SDS011;20951;50.818;4.344;2023-03-01T15:44:23;17.52;;;10.82;;
34725;SDS011;20951;50.818;4.344;2023-03-01T15:47:23;14.05;;;10.48;;
34725;SDS011;20951;50.818;4.344;2023-03-01T15:49:55;15.48;;;11.07;;
34725;SDS011;20951;50.818;4.344;2023-03-01T15:52:35;15.88;;;10.68;;
34725;SDS011;20951;50.818;4.344;2023-03-01T15:55:15;14.88;;;10.23;;
34725;SDS011;20951;50.818;4.344;2023-03-01T15:57:41;14.15;;;11.00;;
34725;SDS011;20951;50.818;4.344;2023-03-01T16:00:11;15.18;;;10.43;;
34725;SDS011;20951;50.818;4.344;2023-03-01T16:02:38;14.30;;;11.15;;
34725;SDS011;20951;50.818;4.344;2023-03-01T16:05:06;16.05;;;10.95;;
34725;SDS011;20951;50.818;4.344;2023-03-01T16:07:52;18.15;;;10.85;;
34725;SDS011;20951;50.818;4.344;2023-03-01T16:10:19;15.48;;;10.65;;
34725;SDS011;20951;50.818;4.344;2023-03-01T16:12:45;15.27;;;10.73;;
34725;SDS011;20951;50.818;4.344;2023-03-01T16:15:17;16.10;;;10.68;;
34725;SDS011;20951;50.818;4.344;2023-03-01T16:17:45;16.35;;;11.02;;
34725;SDS011;20951;50.818;4.344;2023-03-01T16:20:11;15.45;;;11.38;;
34725;SDS011;20951;50.818;4.344;2023-03-01T16:22:41;17.25;;;11.00;;
34725;SDS011;20951;50.818;4.344;2023-03-01T16:25:09;13.98;;;10.25;;
34725;SDS011;20951;50.818;4.344;2023-03-01T16:27:41;14.32;;;10.05;;
34725;SDS011;20951;50.818;4.344;2023-03-01T16:30:09;18.17;;;9.85;;
34725;SDS011;20951;50.818;4.344;2023-03-01T16:32:39;13.88;;;9.15;;
34725;SDS011;20951;50.818;4.344;2023-03-01T16:35:10;14.88;;;9.68;;
34725;SDS011;20951;50.818;4.344;2023-03-01T16:37:39;15.52;;;9.90;;